Time;durP1;ratioP1;P1;durP2;ratioP2;P2;SDS_P1;SDS_P2;PMS_P1;PMS_P2;Temp;Humidity;BMP_temperature;BMP_pressure;BME280_temperature;BME280_humidity;BME280_pressure;Samples;Min_cycle;Max_cycle;Signal;HPM_P1;HPM_P2
2022/05/13 04:02:40;;;;;;;8.73;6.57;;;17.30;99.90;;;-143.14;100.00;56521.75;4933817;29;20490;-72
2022/05/13 04:10:40;;;;;;;10.20;7.07;;;17.40;99.90;;;-143.14;100.00;56521.75;4934552;29;20548;-72
2022/05/13 04:16:07;;;;;;;7.83;5.97;;;17.30;99.90;;;-143.14;100.00;56521.75;4932846;29;20501;-72
2022/05/13 04:18:40;;;;;;;9.83;6.40;;;17.30;99.90;;;-143.14;100.00;56521.75;4934957;29;20454;-72
2022/05/13 04:21:12;;;;;;;8.30;6.87;;;17.40;99.90;;;-143.14;100.00;56521.75;4934995;29;20470;-72
2022/05/13 04:23:43;;;;;;;11.27;6.33;;;17.40;99.90;;;-143.14;100.00;56521.75;4935021;29;20450;-72
2022/05/13 04:26:12;;;;;;;8.87;7.30;;;17.40;99.90;;;-143.14;100.00;56521.75;4934219;29;20458;-72
2022/05/13 04:28:39;;;;;;;7.23;6.20;;;17.50;99.90;;;-143.14;100.00;56521.75;4935216;29;20969;-72
2022/05/13 04:31:06;;;;;;;12.63;6.67;;;17.50;99.90;;;-143.14;100.00;56521.75;4935174;29;20584;-72
2022/05/13 04:33:35;;;;;;;9.33;6.57;;;17.50;99.90;;;-143.14;100.00;56521.75;4934890;29;20549;-72
2022/05/13 04:36:02;;;;;;;9.53;6.53;;;17.50;99.90;;;-143.14;100.00;56521.75;4933452;29;20476;-72
2022/05/13 04:38:29;;;;;;;9.67;7.30;;;17.60;99.90;;;-143.14;100.00;56521.75;4934941;29;20546;-72
2022/05/13 04:40:56;;;;;;;9.63;7.40;;;17.60;99.90;;;-143.14;100.00;56521.75;4934274;29;20840;-72
2022/05/13 04:43:22;;;;;;;11.10;7.13;;;17.60;99.90;;;-143.14;100.00;56521.75;4933966;29;20453;-72
2022/05/13 04:45:49;;;;;;;12.73;7.13;;;17.60;99.90;;;-143.14;100.00;56521.75;4933266;29;20819;-72
2022/05/13 04:48:16;;;;;;;9.10;8.03;;;17.70;99.90;;;-143.14;100.00;56521.75;4934593;29;20481;-67
2022/05/13 04:50:51;;;;;;;10.63;7.87;;;17.60;99.90;;;-143.14;100.00;56521.75;4933681;29;20512;-68
2022/05/13 04:53:22;;;;;;;12.67;7.90;;;17.70;99.90;;;-143.14;100.00;56521.75;4934172;29;20449;-65
2022/05/13 04:55:50;;;;;;;11.60;7.80;;;17.60;99.90;;;-143.14;100.00;56521.75;4933084;29;20553;-68
2022/05/13 04:58:18;;;;;;;10.40;7.60;;;17.60;99.90;;;-143.14;100.00;56521.75;4934207;29;20871;-67
2022/05/13 05:00:46;;;;;;;13.47;8.10;;;17.60;99.90;;;-143.14;100.00;56521.75;4933862;29;20489;-68
2022/05/13 05:03:14;;;;;;;8.60;7.67;;;17.60;99.90;;;-143.14;100.00;56521.75;4920691;29;20566;-69
2022/05/13 05:05:42;;;;;;;9.80;8.03;;;17.60;99.90;;;-143.14;100.00;56521.75;4932276;29;20462;-68
2022/05/13 05:08:12;;;;;;;11.40;7.67;;;17.60;99.90;;;-143.14;100.00;56521.75;4931093;29;20454;-74
2022/05/13 05:10:41;;;;;;;13.00;7.93;;;17.60;99.90;;;-143.14;100.00;56521.75;4924045;29;20533;-74
2022/05/13 05:13:09;;;;;;;12.07;8.30;;;17.60;99.90;;;-143.14;100.00;56521.75;4930312;29;20468;-74
2022/05/13 05:15:38;;;;;;;9.57;7.80;;;17.50;99.90;;;-143.14;100.00;56521.75;4918988;29;20455;-74
2022/05/13 05:18:07;;;;;;;9.60;7.70;;;17.60;99.90;;;-143.14;100.00;56521.75;4922158;29;20459;-75
2022/05/13 05:20:34;;;;;;;11.90;9.77;;;17.60;99.90;;;-143.14;100.00;56521.75;4930341;29;20480;-75
2022/05/13 05:23:01;;;;;;;13.57;8.73;;;17.50;99.90;;;-143.14;100.00;56521.75;4929934;29;20834;-76
2022/05/13 05:25:30;;;;;;;14.13;8.60;;;17.50;99.90;;;-143.14;100.00;56521.75;4929299;29;20569;-74
2022/05/13 05:27:58;;;;;;;11.00;7.53;;;17.60;99.90;;;-143.14;100.00;56521.75;4930610;29;20473;-75
2022/05/13 05:30:26;;;;;;;9.50;7.90;;;17.60;99.90;;;-143.14;100.00;56521.75;4930313;29;20500;-74
2022/05/13 05:32:54;;;;;;;11.80;7.77;;;17.60;99.90;;;-143.14;100.00;56521.75;4930455;29;20461;-74
2022/05/13 05:35:23;;;;;;;12.80;7.40;;;17.70;99.90;;;-143.14;100.00;56521.75;4930345;29;20545;-74
2022/05/13 05:37:50;;;;;;;10.93;7.50;;;17.70;99.90;;;-143.14;100.00;56521.75;4930639;29;20462;-74
2022/05/13 05:40:18;;;;;;;10.13;7.97;;;17.70;99.90;;;-143.14;100.00;56521.75;4928783;29;21293;-75
2022/05/13 05:42:48;;;;;;;17.63;8.53;;;17.70;99.90;;;-143.14;100.00;56521.75;4911784;29;20578;-76
2022/05/13 05:45:17;;;;;;;11.83;7.50;;;17.70;99.90;;;-143.14;100.00;56521.75;4911220;29;20566;-76
2022/05/13 05:47:45;;;;;;;12.30;8.17;;;17.80;99.90;;;-143.14;100.00;56521.75;4910526;29;21025;-76
2022/05/13 05:50:16;;;;;;;9.20;7.97;;;17.80;99.90;;;-143.14;100.00;56521.75;4911663;29;20502;-75
2022/05/13 05:52:44;;;;;;;12.00;8.27;;;17.80;99.90;;;-143.14;100.00;56521.75;4929917;29;20457;-74
2022/05/13 05:58:03;;;;;;;12.70;8.40;;;17.80;99.90;;;-143.14;100.00;56521.75;4930046;29;20453;-75
2022/05/13 06:00:33;;;;;;;12.20;7.90;;;17.80;99.90;;;-143.14;100.00;56521.75;4929037;29;21014;-75
2022/05/13 06:03:01;;;;;;;11.90;7.70;;;17.80;99.90;;;-143.14;100.00;56521.75;4929473;29;21250;-75
2022/05/13 06:05:28;;;;;;;8.13;7.23;;;17.80;99.90;;;-143.14;100.00;56521.75;4929188;29;20830;-74
2022/05/13 06:07:58;;;;;;;9.83;7.67;;;17.80;99.90;;;-143.14;100.00;56521.75;4930046;29;20950;-75
2022/05/13 06:10:26;;;;;;;11.73;8.10;;;17.80;99.90;;;-143.14;100.00;56521.75;4929322;29;20490;-75
2022/05/13 06:12:54;;;;;;;11.37;7.70;;;17.80;99.90;;;-143.14;100.00;56521.75;4929739;29;20489;-75
2022/05/13 06:15:24;;;;;;;11.40;8.30;;;17.80;99.90;;;-143.14;100.00;56521.75;4929212;29;20455;-74
2022/05/13 06:17:54;;;;;;;11.90;8.00;;;17.80;99.90;;;-143.14;100.00;56521.75;4929560;29;20489;-74
2022/05/13 06:20:25;;;;;;;10.47;8.00;;;17.80;99.90;;;-143.14;100.00;56521.75;4928867;29;20460;-74
2022/05/13 06:22:53;;;;;;;10.40;8.30;;;17.80;99.90;;;-143.14;100.00;56521.75;4926776;29;20511;-74
2022/05/13 06:25:22;;;;;;;13.20;8.70;;;17.90;99.90;;;-143.14;100.00;56521.75;4918647;29;20462;-74
2022/05/13 06:27:52;;;;;;;11.03;9.33;;;17.90;99.90;;;-143.14;100.00;56521.75;4920135;29;20447;-74
2022/05/13 06:30:25;;;;;;;13.93;9.30;;;17.90;99.90;;;-143.14;100.00;56521.75;4920889;29;20505;-74
2022/05/13 06:32:54;;;;;;;11.87;8.17;;;17.80;99.90;;;-143.14;100.00;56521.75;4918511;29;20876;-74
2022/05/13 06:35:23;;;;;;;10.27;9.00;;;17.80;99.90;;;-143.14;100.00;56521.75;4920756;29;20458;-75
2022/05/13 06:37:52;;;;;;;13.10;8.87;;;17.90;99.90;;;-143.14;100.00;56521.75;4928750;29;20454;-76
2022/05/13 06:40:22;;;;;;;13.27;10.23;;;17.80;99.90;;;-143.14;100.00;56521.75;4928425;29;20521;-74
2022/05/13 06:42:49;;;;;;;14.77;9.30;;;17.80;99.90;;;-143.14;100.00;56521.75;4929075;29;21054;-75
2022/05/13 06:45:16;;;;;;;15.30;10.43;;;17.70;99.90;;;-143.14;100.00;56521.75;4925395;29;20810;-74
2022/05/13 06:47:45;;;;;;;12.33;9.87;;;17.70;99.90;;;-143.14;100.00;56521.75;4921479;29;20447;-74
2022/05/13 06:50:18;;;;;;;15.90;9.13;;;17.70;99.90;;;-143.14;100.00;56521.75;4913147;29;20477;-75
2022/05/13 06:52:47;;;;;;;14.13;9.20;;;17.60;99.90;;;-143.14;100.00;56521.75;4928908;29;20541;-74
2022/05/13 06:55:18;;;;;;;11.70;9.27;;;17.70;99.90;;;-143.14;100.00;56521.75;4924946;29;20463;-74
2022/05/13 06:57:45;;;;;;;16.27;10.53;;;17.80;99.90;;;-143.14;100.00;56521.75;4920670;29;20851;-74
2022/05/13 07:00:14;;;;;;;15.10;8.97;;;17.80;99.90;;;-143.14;100.00;56521.75;4928054;29;20466;-74
2022/05/13 07:02:42;;;;;;;13.60;9.60;;;17.80;99.90;;;-143.14;100.00;56521.75;4928779;29;20461;-74
2022/05/13 07:05:16;;;;;;;13.43;8.63;;;17.90;99.90;;;-143.14;100.00;56521.75;4927808;29;20464;-74
2022/05/13 07:07:43;;;;;;;13.30;9.00;;;17.80;99.90;;;-143.14;100.00;56521.75;4928709;29;20961;-74
2022/05/13 07:10:11;;;;;;;12.30;8.60;;;17.80;99.90;;;-143.14;100.00;56521.75;4928402;29;20541;-74
2022/05/13 07:12:38;;;;;;;11.57;8.70;;;17.80;99.90;;;-143.14;100.00;56521.75;4928585;29;20458;-74
2022/05/13 07:15:10;;;;;;;13.07;9.27;;;17.80;99.90;;;-143.14;100.00;56521.75;4927974;29;20852;-74
2022/05/13 07:17:38;;;;;;;12.03;8.10;;;17.90;99.90;;;-143.14;100.00;56521.75;4927817;29;21037;-74
2022/05/13 07:20:06;;;;;;;19.17;8.00;;;17.80;99.90;;;-143.14;100.00;56521.75;4927836;29;20454;-74
2022/05/13 07:22:35;;;;;;;15.20;8.50;;;17.90;99.90;;;-143.14;100.00;56521.75;4926958;29;20474;-74
2022/05/13 07:25:02;;;;;;;17.20;8.53;;;17.80;99.90;;;-143.14;100.00;56521.75;4918440;29;20541;-74
2022/05/13 07:27:29;;;;;;;13.03;7.63;;;17.80;99.90;;;-143.14;100.00;56521.75;4928365;29;20565;-74
2022/05/13 07:29:57;;;;;;;11.40;6.37;;;17.70;99.90;;;-143.14;100.00;56521.75;4928796;29;20462;-74
2022/05/13 07:32:24;;;;;;;13.37;6.73;;;17.70;99.90;;;-143.14;100.00;56521.75;4927890;29;20497;-74
2022/05/13 07:34:51;;;;;;;10.87;6.33;;;17.60;99.90;;;-143.14;100.00;56521.75;4928263;29;20450;-73
2022/05/13 07:37:18;;;;;;;11.77;5.83;;;17.60;99.90;;;-143.14;100.00;56521.75;4923427;29;20478;-74
2022/05/13 07:42:31;;;;;;;9.03;5.07;;;17.60;99.90;;;-143.14;100.00;56521.75;4915589;29;20549;-73
2022/05/13 07:44:58;;;;;;;10.13;5.63;;;17.60;99.90;;;-143.14;100.00;56521.75;4922492;29;20454;-74
2022/05/13 07:52:01;;;;;;;15.10;5.10;;;17.60;99.90;;;-143.14;100.00;56521.75;4909094;29;20521;-74
2022/05/13 07:54:28;;;;;;;10.93;4.60;;;17.50;99.90;;;-143.14;100.00;56521.75;4927784;29;20467;-74
2022/05/13 07:56:57;;;;;;;8.60;4.83;;;17.50;99.90;;;-143.14;100.00;56521.75;4928547;29;20881;-73
2022/05/13 07:59:24;;;;;;;8.10;5.00;;;17.40;99.90;;;-143.14;100.00;56521.75;4927956;29;20473;-67
2022/05/13 08:01:51;;;;;;;8.30;4.83;;;17.50;99.90;;;-143.14;100.00;56521.75;4927853;29;20486;-71
2022/05/13 08:04:18;;;;;;;7.13;3.83;;;17.50;99.90;;;-143.14;100.00;56521.75;4924362;29;20856;-68
2022/05/13 08:06:45;;;;;;;10.20;4.37;;;17.50;99.90;;;-143.14;100.00;56521.75;4922671;29;20465;-68
2022/05/13 08:09:15;;;;;;;14.00;3.83;;;17.50;99.90;;;-143.14;100.00;56521.75;4928093;29;20549;-69
2022/05/13 08:11:42;;;;;;;8.03;4.03;;;17.50;99.90;;;-143.14;100.00;56521.75;4927864;29;20499;-71
2022/05/13 08:14:11;;;;;;;12.43;3.67;;;17.50;99.90;;;-143.14;100.00;56521.75;4927664;29;20462;-69
2022/05/13 08:24:01;;;;;;;8.70;4.00;;;17.50;99.90;;;-143.14;100.00;56521.75;4927007;29;20437;-75
2022/05/13 08:26:28;;;;;;;10.37;4.03;;;17.60;99.90;;;-143.14;100.00;56521.75;4928219;29;20466;-73
2022/05/13 08:28:55;;;;;;;5.70;2.90;;;17.60;99.90;;;-143.14;100.00;56521.75;4928235;29;20529;-74
2022/05/13 08:31:24;;;;;;;7.67;3.57;;;17.60;99.90;;;-143.14;100.00;56521.75;4928194;29;20506;-73
2022/05/13 08:33:51;;;;;;;13.27;4.40;;;17.70;99.90;;;-143.14;100.00;56521.75;4928585;29;20454;-74
2022/05/13 08:36:18;;;;;;;8.10;4.07;;;17.80;99.90;;;-143.14;100.00;56521.75;4926888;29;20462;-74
2022/05/13 08:38:47;;;;;;;10.37;4.10;;;17.90;99.90;;;-143.14;100.00;56521.75;4927846;29;20565;-73
2022/05/13 08:41:52;;;;;;;9.43;3.67;;;17.90;99.90;;;-143.14;100.00;56521.75;4927626;29;20982;-74
2022/05/13 08:44:19;;;;;;;9.43;3.83;;;18.00;99.90;;;-143.14;100.00;56521.75;4909069;29;20903;-74
2022/05/13 08:47:01;;;;;;;13.80;5.10;;;18.20;99.90;;;-143.14;100.00;56521.75;4912419;29;20956;-74
2022/05/13 08:49:38;;;;;;;12.63;4.57;;;18.20;99.90;;;-143.14;100.00;56521.75;4912784;29;20443;-74
2022/05/13 08:55:29;;;;;;;14.43;4.53;;;18.30;99.90;;;-143.14;100.00;56521.75;4931111;29;20442;-74
2022/05/13 08:57:59;;;;;;;12.03;4.60;;;18.40;99.90;;;-143.14;100.00;56521.75;4932065;29;20439;-73
2022/05/13 09:00:34;;;;;;;8.10;3.40;;;18.50;99.90;;;-143.14;100.00;56521.75;4931161;29;20832;-72
2022/05/13 09:03:17;;;;;;;8.10;3.63;;;18.60;99.90;;;-143.14;100.00;56521.75;4930448;29;20954;-73
2022/05/13 09:05:53;;;;;;;9.30;4.43;;;18.70;99.90;;;-143.14;100.00;56521.75;4930758;29;20525;-73
2022/05/13 09:08:20;;;;;;;8.67;4.00;;;18.70;99.90;;;-143.14;100.00;56521.75;4931453;29;20454;-74
2022/05/13 09:11:11;;;;;;;8.40;2.83;;;18.80;99.90;;;-143.14;100.00;56521.75;4930951;29;20561;-74
2022/05/13 09:13:57;;;;;;;7.40;3.07;;;18.70;99.90;;;-143.14;100.00;56521.75;4927856;29;20533;-75
2022/05/13 09:16:43;;;;;;;10.13;2.90;;;18.70;99.90;;;-143.14;100.00;56521.75;4920538;29;20474;-74
2022/05/13 09:19:21;;;;;;;8.67;3.43;;;18.70;99.90;;;-143.14;100.00;56521.75;4921590;29;20496;-74
2022/05/13 09:21:48;;;;;;;7.63;3.93;;;18.70;99.90;;;-143.14;100.00;56521.75;4927076;29;20836;-75
2022/05/13 09:24:15;;;;;;;11.83;4.20;;;18.60;99.90;;;-143.14;100.00;56521.75;4922766;29;20462;-74
2022/05/13 09:26:43;;;;;;;7.47;3.10;;;18.60;99.90;;;-143.14;100.00;56521.75;4915355;29;20531;-75
2022/05/13 09:29:16;;;;;;;8.27;3.90;;;18.60;99.90;;;-143.14;100.00;56521.75;4923673;29;20467;-74
2022/05/13 09:31:47;;;;;;;6.63;3.23;;;18.60;99.90;;;-143.14;100.00;56521.75;4930234;29;20830;-74
2022/05/13 09:34:35;;;;;;;7.10;3.40;;;18.60;99.90;;;-143.14;100.00;56521.75;4922188;29;20751;-74
2022/05/13 09:37:11;;;;;;;5.33;3.40;;;18.60;99.90;;;-143.14;100.00;56521.75;4911169;29;20460;-74
2022/05/13 09:39:43;;;;;;;7.63;3.10;;;18.60;99.90;;;-143.14;100.00;56521.75;4911495;29;20479;-74
2022/05/13 09:42:24;;;;;;;8.23;3.90;;;18.60;99.90;;;-143.14;100.00;56521.75;4921928;29;21006;-75
2022/05/13 09:45:10;;;;;;;6.03;4.20;;;18.70;99.90;;;-143.14;100.00;56521.75;4927783;29;20447;-74
2022/05/13 09:47:37;;;;;;;7.43;3.60;;;18.70;99.90;;;-143.14;100.00;56521.75;4929858;29;20473;-74
2022/05/13 09:50:25;;;;;;;6.90;3.40;;;18.80;99.90;;;-143.14;100.00;56521.75;4930287;29;20576;-75
2022/05/13 09:52:52;;;;;;;8.20;3.90;;;18.80;99.90;;;-143.14;100.00;56521.75;4930076;29;21010;-74
2022/05/13 09:55:27;;;;;;;4.37;3.03;;;18.80;99.90;;;-143.14;100.00;56521.75;4928805;29;21025;-74
2022/05/13 09:58:01;;;;;;;7.73;3.13;;;18.80;99.90;;;-143.14;100.00;56521.75;4930109;29;20545;-76
2022/05/13 10:00:32;;;;;;;6.60;2.90;;;18.80;99.90;;;-143.14;100.00;56521.75;4929597;29;20781;-74
2022/05/13 10:03:21;;;;;;;7.80;3.30;;;18.80;99.90;;;-143.14;100.00;56521.75;4929409;29;20537;-75
2022/05/13 10:06:05;;;;;;;6.27;3.23;;;18.80;99.90;;;-143.14;100.00;56521.75;4929652;29;20529;-74
2022/05/13 10:08:32;;;;;;;5.93;3.00;;;18.80;99.90;;;-143.14;100.00;56521.75;4929273;29;20454;-74
2022/05/13 10:13:59;;;;;;;6.50;3.10;;;18.80;99.90;;;-143.14;100.00;56521.75;4915360;29;20455;-74
2022/05/13 10:16:38;;;;;;;5.00;2.43;;;18.80;99.90;;;-143.14;100.00;56521.75;4929657;29;20493;-74
2022/05/13 10:19:14;;;;;;;6.90;2.70;;;18.80;99.90;;;-143.14;100.00;56521.75;4926083;29;20442;-74
2022/05/13 10:21:50;;;;;;;11.27;3.37;;;18.80;99.90;;;-143.14;100.00;56521.75;4910153;29;20479;-74
2022/05/13 10:24:31;;;;;;;10.47;3.40;;;18.80;99.90;;;-143.14;100.00;56521.75;4909934;29;20447;-76
2022/05/13 10:27:04;;;;;;;6.13;2.37;;;18.80;99.90;;;-143.14;100.00;56521.75;4910524;29;20474;-73
2022/05/13 10:29:38;;;;;;;8.60;2.70;;;18.80;99.90;;;-143.14;100.00;56521.75;4910167;29;20459;-74
2022/05/13 10:32:24;;;;;;;8.10;2.60;;;18.80;99.90;;;-143.14;100.00;56521.75;4912048;29;20554;-74
2022/05/13 10:34:56;;;;;;;3.40;2.30;;;18.80;99.90;;;-143.14;100.00;56521.75;4928884;29;20616;-74
2022/05/13 10:37:34;;;;;;;4.23;2.20;;;18.90;99.90;;;-143.14;100.00;56521.75;4929330;29;20458;-75
2022/05/13 10:40:08;;;;;;;5.30;2.50;;;18.80;99.90;;;-143.14;100.00;56521.75;4928735;29;20460;-73
2022/05/13 10:42:40;;;;;;;8.47;2.80;;;18.90;99.90;;;-143.14;100.00;56521.75;4928874;29;20488;-73
2022/05/13 10:45:17;;;;;;;7.27;2.77;;;18.90;99.90;;;-143.14;100.00;56521.75;4928751;29;20898;-73
2022/05/13 10:47:51;;;;;;;7.63;2.60;;;19.00;99.90;;;-143.14;100.00;56521.75;4927246;29;20453;-73
2022/05/13 10:50:22;;;;;;;8.50;2.80;;;19.00;99.90;;;-143.14;100.00;56521.75;4927458;29;20422;-71
2022/05/13 10:53:03;;;;;;;9.10;2.90;;;19.10;99.90;;;-143.14;100.00;56521.75;4924730;29;20585;-76
2022/05/13 10:55:40;;;;;;;6.77;2.90;;;19.20;99.90;;;-143.14;100.00;56521.75;4926973;29;20484;-74
2022/05/13 10:58:25;;;;;;;9.00;3.13;;;19.30;99.90;;;-143.14;100.00;56521.75;4927378;29;20450;-74
2022/05/13 11:01:03;;;;;;;5.47;2.70;;;19.40;99.90;;;-143.14;100.00;56521.75;4926999;29;20498;-73
2022/05/13 11:03:48;;;;;;;7.33;3.43;;;19.60;99.90;;;-143.14;100.00;56521.75;4927610;29;20616;-73
2022/05/13 11:06:34;;;;;;;5.87;3.10;;;19.70;99.90;;;-143.14;100.00;56521.75;4927119;29;20431;-73
2022/05/13 11:09:12;;;;;;;5.47;3.53;;;19.70;99.90;;;-143.14;100.00;56521.75;4926820;29;20494;-73
2022/05/13 11:11:42;;;;;;;5.70;3.40;;;19.60;99.90;;;-143.14;100.00;56521.75;4927447;29;20880;-75
2022/05/13 11:14:41;;;;;;;6.03;2.83;;;19.70;99.90;;;-143.14;100.00;56521.75;4927349;29;20628;-73
2022/05/13 11:17:32;;;;;;;7.53;3.50;;;19.70;99.90;;;-143.14;100.00;56521.75;4927441;29;20537;-74
2022/05/13 11:20:22;;;;;;;5.60;2.90;;;20.00;99.90;;;-143.14;100.00;56521.75;4927978;29;20439;-74
2022/05/13 11:23:05;;;;;;;7.47;2.63;;;20.10;99.90;;;-143.14;100.00;56521.75;4927057;29;20471;-74
2022/05/13 11:26:00;;;;;;;5.23;2.93;;;20.30;99.90;;;-143.14;100.00;56521.75;4927136;29;20454;-74
2022/05/13 11:29:06;;;;;;;6.80;3.63;;;20.40;99.90;;;-143.14;100.00;56521.75;4927564;29;20954;-74
2022/05/13 11:32:02;;;;;;;7.00;3.07;;;20.50;99.90;;;-143.14;100.00;56521.75;4927706;29;21167;-74
2022/05/13 11:35:02;;;;;;;9.23;3.03;;;20.60;99.90;;;-143.14;100.00;56521.75;4908599;29;20447;-74
2022/05/13 11:37:36;;;;;;;9.33;3.70;;;20.70;99.90;;;-143.14;100.00;56521.75;4909100;29;20486;-75
2022/05/13 11:40:23;;;;;;;5.40;2.80;;;20.80;99.90;;;-143.14;100.00;56521.75;4919120;29;20516;-74
2022/05/13 11:43:30;;;;;;;4.77;3.10;;;21.00;99.90;;;-143.14;100.00;56521.75;4928634;29;20443;-76
2022/05/13 11:46:31;;;;;;;5.20;2.97;;;21.20;99.90;;;-143.14;100.00;56521.75;4927324;29;20546;-75
2022/05/13 11:49:20;;;;;;;9.13;3.40;;;21.60;99.90;;;-143.14;100.00;56521.75;4926203;29;20901;-75
2022/05/13 11:51:47;;;;;;;11.07;3.97;;;21.40;99.90;;;-143.14;100.00;56521.75;4928095;29;20738;-75
2022/05/13 11:54:24;;;;;;;6.93;3.07;;;21.30;99.90;;;-143.14;100.00;56521.75;4927579;29;20553;-76
2022/05/13 11:57:25;;;;;;;8.57;3.37;;;21.30;99.90;;;-143.14;100.00;56521.75;4927805;29;20469;-75
2022/05/13 11:59:56;;;;;;;8.60;3.00;;;21.30;99.90;;;-143.14;100.00;56521.75;4927334;29;20462;-75
2022/05/13 12:02:50;;;;;;;5.77;3.53;;;21.30;99.90;;;-143.14;100.00;56521.75;4916560;29;21109;-76
2022/05/13 12:05:36;;;;;;;7.37;3.13;;;21.20;99.90;;;-143.14;100.00;56521.75;4906969;29;20466;-76
2022/05/13 12:08:22;;;;;;;8.07;3.50;;;21.30;99.90;;;-143.14;100.00;56521.75;4908652;29;20458;-75
2022/05/13 12:11:13;;;;;;;8.40;2.87;;;21.30;99.90;;;-143.14;100.00;56521.75;4922713;29;20498;-75
2022/05/13 12:13:53;;;;;;;6.67;3.27;;;21.50;99.90;;;-143.14;100.00;56521.75;4927464;29;20506;-76
2022/05/13 12:16:36;;;;;;;6.17;3.07;;;21.60;99.90;;;-143.14;100.00;56521.75;4928074;29;20464;-76
2022/05/13 12:19:35;;;;;;;8.63;2.90;;;21.60;99.90;;;-143.14;100.00;56521.75;4930020;29;20441;-76
2022/05/13 12:22:12;;;;;;;10.73;3.70;;;21.60;99.90;;;-143.14;100.00;56521.75;4932396;29;20569;-76
2022/05/13 12:25:02;;;;;;;12.43;3.70;;;21.60;99.90;;;-143.14;100.00;56521.75;4932118;29;20573;-77
2022/05/13 12:27:35;;;;;;;6.40;3.23;;;21.50;99.90;;;-143.14;100.00;56521.75;4925983;29;20450;-79
2022/05/13 12:30:29;;;;;;;5.77;2.87;;;21.60;99.90;;;-143.14;100.00;56521.75;4931619;29;20935;-76
2022/05/13 12:33:19;;;;;;;6.67;2.87;;;21.60;99.90;;;-143.14;100.00;56521.75;4930869;29;21001;-75
2022/05/13 12:39:12;;;;;;;5.83;2.97;;;21.80;99.90;;;-143.14;100.00;56521.75;4930113;29;20450;-75
2022/05/13 12:41:53;;;;;;;7.37;2.67;;;22.10;99.90;;;-143.14;100.00;56521.75;4911644;29;20801;-76
2022/05/13 12:44:35;;;;;;;10.20;2.90;;;22.20;99.90;;;-143.14;100.00;56521.75;4910376;29;20454;-76
2022/05/13 12:47:27;;;;;;;6.37;2.73;;;22.10;99.90;;;-143.14;100.00;56521.75;4911526;29;20478;-76
2022/05/13 12:49:59;;;;;;;4.43;2.53;;;22.20;99.90;;;-143.14;100.00;56521.75;4918013;29;20957;-75
2022/05/13 12:52:39;;;;;;;11.33;2.67;;;22.20;99.90;;;-143.14;100.00;56521.75;4928869;29;21615;-75
2022/05/13 12:55:18;;;;;;;4.57;2.57;;;22.10;99.90;;;-143.14;100.00;56521.75;4929388;29;20549;-75
2022/05/13 12:57:51;;;;;;;7.40;3.33;;;22.00;99.90;;;-143.14;100.00;56521.75;4929731;29;20458;-75
2022/05/13 13:00:22;;;;;;;8.77;3.20;;;22.10;99.90;;;-143.14;100.00;56521.75;4930029;29;20462;-76
2022/05/13 13:02:56;;;;;;;4.50;2.70;;;22.10;99.90;;;-143.14;100.00;56521.75;4930296;29;21216;-75
2022/05/13 13:05:30;;;;;;;4.10;2.30;;;22.10;99.90;;;-143.14;100.00;56521.75;4929159;29;20553;-75
2022/05/13 13:08:05;;;;;;;7.80;2.60;;;22.00;99.90;;;-143.14;100.00;56521.75;4930866;29;20465;-75
2022/05/13 13:10:33;;;;;;;5.73;2.40;;;21.90;99.90;;;-143.14;100.00;56521.75;4929967;29;20584;-76
2022/05/13 13:13:10;;;;;;;5.00;2.73;;;21.90;99.90;;;-143.14;100.00;56521.75;4929094;29;20505;-76
2022/05/13 13:15:47;;;;;;;6.57;2.63;;;21.90;99.90;;;-143.14;100.00;56521.75;4928619;29;20484;-76
2022/05/13 13:18:16;;;;;;;6.83;2.90;;;22.10;99.90;;;-143.14;100.00;56521.75;4930145;29;20927;-77
2022/05/13 13:20:55;;;;;;;8.97;2.90;;;22.20;99.90;;;-143.14;100.00;56521.75;4918941;29;20941;-77
2022/05/13 13:23:23;;;;;;;3.27;2.10;;;22.30;99.90;;;-143.14;100.00;56521.75;4919723;29;20459;-76
2022/05/13 13:25:53;;;;;;;7.00;2.50;;;22.30;99.90;;;-143.14;100.00;56521.75;4910412;29;20836;-76
2022/05/13 13:28:26;;;;;;;8.53;2.60;;;22.40;99.90;;;-143.14;100.00;56521.75;4910571;29;20556;-76
2022/05/13 13:30:58;;;;;;;5.37;2.30;;;22.50;99.90;;;-143.14;100.00;56521.75;4923694;29;20515;-76
2022/05/13 13:33:30;;;;;;;7.87;2.37;;;22.60;99.90;;;-143.14;100.00;56521.75;4929856;29;20808;-75
2022/05/13 13:36:09;;;;;;;6.27;2.53;;;22.70;99.90;;;-143.14;100.00;56521.75;4929542;29;20923;-76
2022/05/13 13:38:37;;;;;;;5.23;2.30;;;22.90;99.90;;;-143.14;100.00;56521.75;4930194;29;20533;-77
2022/05/13 13:41:05;;;;;;;6.40;3.50;;;22.80;99.90;;;-143.14;100.00;56521.75;4929406;29;20928;-77
2022/05/13 13:43:34;;;;;;;14.53;2.50;;;22.80;99.90;;;-143.14;100.00;56521.75;4930149;29;20892;-75
2022/05/13 13:46:10;;;;;;;4.20;2.17;;;23.00;99.90;;;-143.14;100.00;56521.75;4929479;29;20501;-74
2022/05/13 13:48:45;;;;;;;9.80;2.20;;;23.00;99.90;;;-143.14;100.00;56521.75;4930072;29;20951;-77
2022/05/13 13:51:21;;;;;;;3.23;2.27;;;23.10;99.90;;;-143.14;100.00;56521.75;4929254;29;20508;-76
2022/05/13 13:53:56;;;;;;;10.27;2.33;;;23.00;99.90;;;-143.14;100.00;56521.75;4929536;29;20500;-76
2022/05/13 13:56:24;;;;;;;10.90;4.67;;;23.10;99.90;;;-143.14;100.00;56521.75;4929815;29;20529;-76
2022/05/13 13:59:08;;;;;;;3.27;1.70;;;23.20;99.90;;;-143.14;100.00;56521.75;4929943;29;20819;-76
2022/05/13 14:01:44;;;;;;;2.93;1.70;;;23.20;99.90;;;-143.14;100.00;56521.75;4929862;29;20496;-76
2022/05/13 14:04:19;;;;;;;3.63;2.13;;;23.30;99.90;;;-143.14;100.00;56521.75;4929542;29;20538;-75
2022/05/13 14:06:47;;;;;;;7.30;2.37;;;23.20;99.90;;;-143.14;100.00;56521.75;4929473;29;20537;-75
2022/05/13 14:09:22;;;;;;;3.13;2.07;;;23.10;99.90;;;-143.14;100.00;56521.75;4929893;29;20534;-76
2022/05/13 14:11:51;;;;;;;9.00;4.90;;;23.10;99.90;;;-143.14;100.00;56521.75;4929559;29;20562;-76
2022/05/13 14:14:19;;;;;;;4.40;2.50;;;23.20;99.90;;;-143.14;100.00;56521.75;4909920;29;20543;-76
2022/05/13 14:16:55;;;;;;;3.20;1.77;;;23.30;99.90;;;-143.14;100.00;56521.75;4910995;29;20894;-75
2022/05/13 14:19:29;;;;;;;6.03;2.20;;;23.30;99.90;;;-143.14;100.00;56521.75;4910196;29;20458;-75
2022/05/13 14:22:00;;;;;;;5.63;2.03;;;23.30;99.90;;;-143.14;100.00;56521.75;4910786;29;20527;-76
2022/05/13 14:24:35;;;;;;;3.63;1.57;;;23.40;99.90;;;-143.14;100.00;56521.75;4929175;29;20526;-75
2022/05/13 14:27:12;;;;;;;5.60;2.03;;;23.40;99.90;;;-143.14;100.00;56521.75;4929105;29;20533;-76
2022/05/13 14:29:39;;;;;;;8.60;1.80;;;23.40;99.90;;;-143.14;100.00;56521.75;4929167;29;21030;-76
2022/05/13 14:32:12;;;;;;;5.60;2.13;;;23.30;99.90;;;-143.14;100.00;56521.75;4929046;29;20480;-76
2022/05/13 14:34:42;;;;;;;8.93;1.90;;;23.30;99.90;;;-143.14;100.00;56521.75;4928760;29;20606;-74
2022/05/13 14:37:14;;;;;;;5.00;2.43;;;23.30;99.90;;;-143.14;100.00;56521.75;4929829;29;20490;-75
2022/05/13 14:39:52;;;;;;;2.67;1.60;;;23.20;99.90;;;-143.14;100.00;56521.75;4922646;29;21510;-75
2022/05/13 14:42:28;;;;;;;3.47;1.80;;;23.30;99.90;;;-143.14;100.00;56521.75;4914807;29;21368;-75
2022/05/13 14:44:59;;;;;;;4.47;1.90;;;23.20;99.90;;;-143.14;100.00;56521.75;4929492;29;20839;-75
2022/05/13 14:47:38;;;;;;;5.40;2.07;;;23.20;99.90;;;-143.14;100.00;56521.75;4929915;29;20525;-75
2022/05/13 14:50:30;;;;;;;6.53;2.07;;;23.20;99.90;;;-143.14;100.00;56521.75;4930599;29;20469;-74
2022/05/13 14:52:58;;;;;;;7.83;1.70;;;23.30;99.90;;;-143.14;100.00;56521.75;4929560;29;20845;-75
2022/05/13 14:55:30;;;;;;;5.17;2.00;;;23.30;99.90;;;-143.14;100.00;56521.75;4929596;29;20489;-75
2022/05/13 14:58:00;;;;;;;7.90;2.27;;;23.40;99.90;;;-143.14;100.00;56521.75;4929394;29;20461;-75
2022/05/13 15:00:31;;;;;;;5.47;1.80;;;23.40;99.90;;;-143.14;100.00;56521.75;4929737;29;20458;-75
2022/05/13 15:03:03;;;;;;;4.90;1.80;;;23.40;99.90;;;-143.14;100.00;56521.75;4930335;29;20558;-74